Time;durP1;ratioP1;P1;durP2;ratioP2;P2;SDS_P1;SDS_P2;PMS_P1;PMS_P2;Temp;Humidity;BMP_temperature;BMP_pressure;BME280_temperature;BME280_humidity;BME280_pressure;Samples;Min_cycle;Max_cycle;Signal;HPM_P1;HPM_P2
2022/05/18 03:56:40;;;;;;;4.03;3.08;;;;;;;16.90;60.69;101113.50;5606463;31;75978;-59
2022/05/18 03:59:42;;;;;;;5.95;3.67;;;;;;;16.90;60.69;101113.50;5583991;32;33126;-59
2022/05/18 04:02:47;;;;;;;7.22;3.40;;;;;;;16.43;60.08;101123.66;5583978;31;33595;-59
2022/05/18 04:05:51;;;;;;;7.78;2.92;;;;;;;16.46;61.10;101133.09;5588215;31;34318;-59
2022/05/18 04:08:54;;;;;;;6.95;3.30;;;;;;;16.47;61.41;101136.59;5603187;31;33624;-58
2022/05/18 04:11:56;;;;;;;5.35;3.45;;;;;;;16.67;68.29;101138.91;5603688;31;33586;-59
2022/05/18 04:14:58;;;;;;;7.37;3.08;;;;;;;16.77;60.76;101144.12;5602625;31;33586;-59
2022/05/18 04:18:01;;;;;;;7.12;3.78;;;;;;;16.74;61.09;101152.81;5603697;31;33848;-59
2022/05/18 04:21:03;;;;;;;12.15;3.10;;;;;;;16.86;61.04;101161.28;5603075;31;33178;-59
2022/05/18 04:24:06;;;;;;;4.03;3.20;;;;;;;16.91;61.71;101171.97;5603009;31;33745;-59
2022/05/18 04:27:08;;;;;;;5.70;2.97;;;;;;;17.14;69.62;101177.47;5603240;31;33348;-59
2022/05/18 04:30:11;;;;;;;7.00;3.03;;;;;;;17.13;61.64;101184.00;5602133;31;34396;-58
2022/05/18 04:33:18;;;;;;;5.80;3.15;;;;;;;17.14;63.05;101191.81;5602324;31;33872;-59
2022/05/18 04:36:20;;;;;;;5.72;2.80;;;;;;;17.13;58.73;101189.41;5588445;31;33599;-59
2022/05/18 04:39:22;;;;;;;7.22;3.42;;;;;;;17.26;58.30;101199.41;5599556;31;34224;-57
2022/05/18 04:42:25;;;;;;;6.03;2.80;;;;;;;17.24;62.73;101207.03;5593616;31;34356;-58
2022/05/18 04:45:27;;;;;;;6.50;3.42;;;;;;;17.42;60.92;101212.59;5587637;31;34228;-59
2022/05/18 04:48:31;;;;;;;6.43;2.80;;;;;;;17.45;59.53;101218.25;5589383;31;33721;-59
2022/05/18 04:51:33;;;;;;;5.93;2.87;;;;;;;17.36;53.32;101211.94;5591300;31;34252;-58
2022/05/18 04:54:36;;;;;;;8.00;4.35;;;;;;;17.38;59.16;101215.94;5590725;31;33729;-58
2022/05/18 04:57:39;;;;;;;6.75;3.08;;;;;;;17.60;69.05;101222.50;5581381;32;34252;-58
2022/05/18 05:00:43;;;;;;;7.62;3.05;;;;;;;17.50;61.75;101226.25;5580099;32;33428;-58
2022/05/18 05:03:45;;;;;;;5.80;3.10;;;;;;;17.69;63.67;101234.22;5593712;31;33186;-58
2022/05/18 05:06:47;;;;;;;6.75;2.85;;;;;;;17.61;63.91;101248.50;5593035;31;34410;-58
2022/05/18 05:09:49;;;;;;;7.10;3.47;;;;;;;17.50;56.08;101255.25;5574378;31;33668;-57
2022/05/18 05:12:53;;;;;;;5.05;3.20;;;;;;;17.32;57.19;101254.31;5569675;32;32244;-58
2022/05/18 05:16:04;;;;;;;8.65;3.05;;;;;;;17.36;61.79;101261.53;5569880;32;33636;-58
2022/05/18 05:19:07;;;;;;;6.70;3.08;;;;;;;17.48;55.44;101273.72;5569841;32;33842;-58
2022/05/18 05:22:09;;;;;;;4.53;2.83;;;;;;;17.73;55.74;101275.88;5569479;32;33703;-58
2022/05/18 05:25:14;;;;;;;5.75;3.08;;;;;;;17.90;55.58;101286.09;5569835;32;34300;-58
2022/05/18 05:28:16;;;;;;;4.18;2.47;;;;;;;17.89;53.71;101287.22;5567519;32;33607;-58
2022/05/18 05:31:18;;;;;;;7.43;2.78;;;;;;;17.80;53.09;101297.19;5577769;31;34280;-58
2022/05/18 05:34:20;;;;;;;6.65;2.67;;;;;;;17.77;61.21;101309.44;5588765;31;33617;-58
2022/05/18 05:37:23;;;;;;;8.02;2.90;;;;;;;17.73;52.93;101313.06;5589608;31;33404;-59
2022/05/18 05:40:25;;;;;;;5.07;2.53;;;;;;;17.73;52.66;101321.19;5585713;31;33777;-58
2022/05/18 05:43:31;;;;;;;8.05;2.80;;;;;;;17.45;50.76;101325.84;5570443;31;33701;-58
2022/05/18 05:46:33;;;;;;;6.05;2.65;;;;;;;17.32;49.95;101330.19;5575978;31;33761;-58
2022/05/18 05:49:37;;;;;;;4.10;2.58;;;;;;;17.36;51.94;101345.53;5570027;31;33733;-58
2022/05/18 05:52:39;;;;;;;7.30;2.50;;;;;;;17.23;53.26;101350.97;5584449;31;33620;-58
2022/05/18 05:55:42;;;;;;;9.18;2.53;;;;;;;17.21;53.15;101356.66;5587962;31;34366;-58
2022/05/18 05:58:44;;;;;;;7.45;2.70;;;;;;;17.23;52.33;101357.19;5569365;31;33782;-58
2022/05/18 06:01:46;;;;;;;5.62;2.60;;;;;;;17.32;53.45;101360.00;5570045;32;33635;-58
2022/05/18 06:04:49;;;;;;;6.40;2.95;;;;;;;17.22;48.81;101373.72;5569675;32;33748;-58
2022/05/18 06:07:51;;;;;;;8.63;2.65;;;;;;;17.06;48.48;101374.03;5585159;31;33611;-58
2022/05/18 06:10:55;;;;;;;8.90;2.58;;;;;;;17.10;49.81;101372.31;5589442;31;33920;-57
2022/05/18 06:13:57;;;;;;;10.48;2.33;;;;;;;17.32;49.00;101389.81;5576988;31;33744;-58
2022/05/18 06:16:59;;;;;;;5.05;2.00;;;;;;;17.57;47.01;101392.00;5581307;31;34498;-58
2022/05/18 06:20:02;;;;;;;7.90;1.90;;;;;;;17.80;46.00;101381.25;5588380;31;34246;-58
2022/05/18 06:23:09;;;;;;;3.47;2.25;;;;;;;18.01;50.21;101387.88;5589099;31;33291;-58
2022/05/18 06:26:11;;;;;;;5.70;2.35;;;;;;;18.01;44.28;101404.13;5587972;31;34432;-58
2022/05/18 06:29:14;;;;;;;6.28;2.00;;;;;;;18.06;45.37;101401.28;5588766;31;33581;-58
2022/05/18 06:32:17;;;;;;;5.05;2.22;;;;;;;18.03;44.55;101410.03;5581443;31;33276;-58
2022/05/18 06:35:20;;;;;;;8.68;2.35;;;;;;;18.02;43.59;101411.16;5568211;31;34277;-58
2022/05/18 06:38:23;;;;;;;9.13;2.40;;;;;;;18.17;46.20;101426.28;5577801;31;34327;-57
2022/05/18 06:41:26;;;;;;;7.93;2.08;;;;;;;18.24;42.53;101428.59;5573714;31;35170;-58
2022/05/18 06:44:28;;;;;;;5.37;2.28;;;;;;;18.18;43.98;101429.78;5579484;31;33691;-58
2022/05/18 06:47:31;;;;;;;3.58;2.50;;;;;;;18.45;44.87;101432.44;5569085;31;33635;-58
2022/05/18 06:50:33;;;;;;;3.87;2.20;;;;;;;18.53;47.48;101442.56;5569030;31;33710;-57
2022/05/18 06:53:36;;;;;;;5.95;2.42;;;;;;;18.62;46.04;101448.06;5568294;31;34039;-58
2022/05/18 06:56:42;;;;;;;6.93;2.25;;;;;;;18.75;43.94;101455.38;5574422;31;34392;-58
2022/05/18 06:59:45;;;;;;;3.75;1.87;;;;;;;18.84;46.52;101452.72;5576856;31;33712;-58
2022/05/18 07:02:47;;;;;;;4.40;2.30;;;;;;;18.82;42.12;101459.59;5576995;31;34254;-57
2022/05/18 07:05:50;;;;;;;4.53;1.98;;;;;;;18.82;42.33;101465.81;5574585;31;33742;-58
2022/05/18 07:08:54;;;;;;;6.28;2.15;;;;;;;18.88;44.36;101471.94;5568705;32;33406;-58
2022/05/18 07:11:57;;;;;;;2.87;1.80;;;;;;;18.88;44.87;101483.59;5568541;31;33719;-58
2022/05/18 07:14:59;;;;;;;5.20;2.33;;;;;;;18.78;41.43;101484.66;5584317;31;33665;-57
2022/05/18 07:18:02;;;;;;;6.18;1.98;;;;;;;18.93;51.69;101490.81;5594489;31;33736;-58
2022/05/18 07:21:07;;;;;;;4.90;1.90;;;;;;;19.09;52.66;101488.53;5574113;31;33631;-58
2022/05/18 07:24:10;;;;;;;7.62;1.77;;;;;;;19.31;44.70;101493.94;5585665;31;34455;-58
2022/05/18 07:27:12;;;;;;;4.40;1.73;;;;;;;19.29;46.18;101498.06;5584427;31;33684;-59
2022/05/18 07:30:15;;;;;;;4.53;1.95;;;;;;;19.42;49.21;101502.62;5586564;31;34296;-58
2022/05/18 07:33:22;;;;;;;14.13;2.35;;;;;;;19.44;46.56;101495.75;5587710;31;33619;-58
2022/05/18 07:36:24;;;;;;;4.85;2.10;;;;;;;19.52;45.81;101507.78;5586415;31;33663;-58
2022/05/18 07:39:28;;;;;;;5.10;2.12;;;;;;;19.14;54.43;101504.69;5583748;31;34327;-58
2022/05/18 07:42:31;;;;;;;3.10;1.92;;;;;;;19.24;46.67;101507.97;5587735;31;34405;-58
2022/05/18 07:45:35;;;;;;;8.48;2.30;;;;;;;19.19;42.18;101510.00;5586914;31;33620;-58
2022/05/18 07:48:38;;;;;;;4.43;2.10;;;;;;;19.17;40.93;101518.47;5583924;31;33609;-58
2022/05/18 07:51:40;;;;;;;5.43;2.33;;;;;;;19.11;40.55;101511.56;5568286;32;33649;-58
2022/05/18 07:54:44;;;;;;;5.47;2.10;;;;;;;18.98;46.56;101517.87;5569509;31;33305;-59
2022/05/18 07:57:46;;;;;;;5.03;2.22;;;;;;;19.22;46.14;101522.97;5567932;32;34209;-59
2022/05/18 08:00:49;;;;;;;7.60;1.75;;;;;;;19.35;42.16;101526.72;5583437;31;33672;-58
2022/05/18 08:03:51;;;;;;;5.55;1.83;;;;;;;19.30;41.65;101530.38;5578645;31;33751;-58
2022/05/18 08:06:54;;;;;;;2.87;1.70;;;;;;;18.98;40.06;101515.94;5583596;31;33583;-57
2022/05/18 08:16:40;;;;;;;6.60;1.80;;;;;;;19.54;45.44;101545.56;5568123;31;33779;-58
2022/05/18 08:19:43;;;;;;;8.43;2.00;;;;;;;19.33;39.46;101556.94;5573695;31;34089;-57
2022/05/18 08:22:47;;;;;;;5.78;2.03;;;;;;;18.97;40.47;101557.84;5566735;31;33349;-58
2022/05/18 08:25:49;;;;;;;6.55;1.90;;;;;;;19.01;41.91;101563.44;5577098;31;33781;-58
2022/05/18 08:28:52;;;;;;;3.90;1.90;;;;;;;18.98;42.63;101572.22;5577152;31;33682;-58
2022/05/18 08:31:56;;;;;;;7.05;2.20;;;;;;;18.93;37.73;101567.69;5579125;31;33694;-58
2022/05/18 08:34:58;;;;;;;11.63;2.25;;;;;;;19.09;43.08;101570.84;5585009;31;33790;-58
2022/05/18 08:38:00;;;;;;;5.78;2.08;;;;;;;19.18;39.92;101565.50;5564974;32;34288;-58
2022/05/18 08:41:11;;;;;;;7.15;2.08;;;;;;;19.39;55.88;101579.37;5571403;31;34963;-58
2022/05/18 08:44:28;;;;;;;8.73;2.10;;;;;;;19.23;40.45;101574.31;5587325;31;34300;-58
2022/05/18 08:47:42;;;;;;;10.23;2.12;;;;;;;19.18;39.12;101576.37;5580271;31;33822;-57
2022/05/18 08:50:52;;;;;;;4.57;2.00;;;;;;;19.35;43.61;101581.91;5583263;31;33696;-58
2022/05/18 08:54:23;;;;;;;13.27;3.15;;;;;;;19.43;41.12;101577.62;5573070;31;33152;-58
2022/05/18 08:57:36;;;;;;;6.25;2.15;;;;;;;19.26;39.33;101578.31;5574557;31;33652;-58
2022/05/18 09:00:43;;;;;;;3.33;1.90;;;;;;;18.97;39.48;101587.72;5574732;31;34040;-58
2022/05/18 09:03:53;;;;;;;7.93;2.42;;;;;;;19.23;43.94;101589.81;5583771;31;34435;-58
2022/05/18 09:07:10;;;;;;;9.35;2.42;;;;;;;19.34;41.70;101588.47;5578144;31;33716;-58
2022/05/18 09:10:25;;;;;;;3.58;2.20;;;;;;;19.32;38.19;101600.75;5569675;31;34280;-58
2022/05/18 09:13:28;;;;;;;6.45;1.90;;;;;;;19.39;38.85;101593.75;5584486;31;33193;-58
2022/05/18 09:16:42;;;;;;;5.90;2.17;;;;;;;19.14;38.42;101589.78;5583109;31;33655;-58
2022/05/18 09:20:20;;;;;;;4.35;2.10;;;;;;;19.33;39.15;101595.00;5588073;31;34179;-58
2022/05/18 09:23:32;;;;;;;2.85;2.00;;;;;;;19.13;38.13;101587.34;5561843;31;33850;-58
2022/05/18 09:27:13;;;;;;;4.95;2.05;;;;;;;18.85;36.98;101583.94;5573113;31;34344;-58
2022/05/18 09:30:32;;;;;;;8.40;2.20;;;;;;;19.04;43.82;101595.44;5570415;31;33706;-58
2022/05/18 09:34:06;;;;;;;4.28;1.70;;;;;;;19.13;42.82;101590.84;5587793;31;33625;-57
2022/05/18 09:37:24;;;;;;;6.12;2.30;;;;;;;19.41;41.38;101593.47;5578922;31;33780;-59
2022/05/18 09:40:38;;;;;;;3.25;2.08;;;;;;;19.46;37.04;101593.31;5580067;31;33620;-59
2022/05/18 09:43:50;;;;;;;4.22;1.90;;;;;;;19.56;38.98;101598.50;5579970;31;34285;-58
2022/05/18 09:46:55;;;;;;;6.93;2.67;;;;;;;19.57;41.51;101602.84;5587364;31;33582;-58
2022/05/18 09:50:02;;;;;;;6.30;2.20;;;;;;;19.57;38.75;101597.41;5591701;31;33807;-58
2022/05/18 09:53:05;;;;;;;9.80;2.25;;;;;;;19.69;38.88;101605.00;5573919;31;33380;-58
2022/05/18 09:56:21;;;;;;;4.03;1.80;;;;;;;19.32;36.80;101601.56;5576928;31;33759;-58
2022/05/18 09:59:30;;;;;;;;;;;;;;;19.19;34.76;101594.28;5568987;31;33649;-58
2022/05/18 10:09:21;;;;;;;5.65;2.15;;;;;;;19.60;39.91;101601.41;5581244;31;33765;-59
2022/05/18 10:12:30;;;;;;;5.05;1.85;;;;;;;19.53;32.50;101612.72;5582045;31;33635;-58
2022/05/18 10:15:38;;;;;;;5.85;1.83;;;;;;;19.45;34.86;101616.22;5579842;31;33761;-58
2022/05/18 10:18:57;;;;;;;5.15;1.65;;;;;;;19.41;34.75;101610.59;5570051;31;33706;-59
2022/05/18 10:22:05;;;;;;;3.33;1.60;;;;;;;19.45;32.49;101592.53;5581378;31;33720;-58
2022/05/18 10:25:23;;;;;;;2.65;1.55;;;;;;;19.68;34.27;101595.25;5574287;31;33609;-58
2022/05/18 10:28:28;;;;;;;3.12;1.80;;;;;;;19.91;29.37;101601.44;5569097;31;34211;-58
2022/05/18 10:31:37;;;;;;;7.12;1.60;;;;;;;19.97;31.45;101602.09;5573220;31;33637;-58
2022/05/18 10:34:41;;;;;;;3.17;1.40;;;;;;;19.95;33.00;101600.50;5581342;31;33838;-58
2022/05/18 10:37:44;;;;;;;4.72;1.40;;;;;;;19.93;39.44;101591.88;5583872;31;33723;-58
2022/05/18 10:40:46;;;;;;;3.40;1.40;;;;;;;19.69;28.59;101580.53;5580884;31;33590;-59
2022/05/18 10:44:05;;;;;;;4.50;1.50;;;;;;;19.68;30.04;101590.63;5572874;31;33909;-58
2022/05/18 10:47:20;;;;;;;2.70;1.80;;;;;;;19.79;30.81;101584.91;5569521;32;33752;-58
2022/05/18 10:50:34;;;;;;;1.73;1.50;;;;;;;19.91;34.97;101590.56;5580842;31;34458;-59
2022/05/18 10:53:45;;;;;;;4.12;1.80;;;;;;;20.00;31.31;101583.25;5578222;31;34295;-59
2022/05/18 10:56:49;;;;;;;3.92;1.40;;;;;;;20.03;29.38;101585.31;5580712;31;33247;-57
2022/05/18 11:00:00;;;;;;;4.05;1.50;;;;;;;20.07;30.64;101586.31;5566841;32;33674;-58
2022/05/18 11:03:24;;;;;;;2.20;1.25;;;;;;;20.12;32.62;101582.63;5578408;31;33590;-58
2022/05/18 11:06:33;;;;;;;6.30;1.52;;;;;;;19.80;27.07;101572.87;5567824;31;34448;-58
2022/05/18 11:09:39;;;;;;;2.72;1.20;;;;;;;19.64;27.81;101576.03;5571047;31;34321;-59
2022/05/18 11:12:50;;;;;;;4.95;1.20;;;;;;;19.79;30.67;101582.97;5580354;31;33750;-58
2022/05/18 11:15:58;;;;;;;4.10;1.42;;;;;;;19.94;28.50;101588.03;5587030;31;34365;-58
2022/05/18 11:19:28;;;;;;;3.30;1.45;;;;;;;20.15;38.08;101587.44;5591149;31;34336;-58
2022/05/18 11:22:50;;;;;;;2.20;1.30;;;;;;;20.22;30.39;101578.81;5580667;31;34329;-58
2022/05/18 11:26:05;;;;;;;2.53;1.37;;;;;;;20.26;28.08;101566.97;5570405;31;32145;-58
2022/05/18 11:29:47;;;;;;;2.20;1.17;;;;;;;20.38;32.27;101563.66;5588547;31;33743;-58
2022/05/18 11:33:26;;;;;;;3.83;1.27;;;;;;;20.38;27.11;101569.09;5571799;31;34364;-59
2022/05/18 11:36:44;;;;;;;4.07;1.10;;;;;;;20.40;28.06;101572.31;5593289;31;34441;-58
2022/05/18 11:40:07;;;;;;;1.77;0.93;;;;;;;20.29;22.01;101562.81;5596422;31;34352;-58
2022/05/18 11:43:28;;;;;;;2.12;1.10;;;;;;;20.30;21.86;101561.72;5592133;31;33705;-58
2022/05/18 11:46:38;;;;;;;2.00;1.00;;;;;;;20.50;29.61;101555.66;5590335;31;33556;-58
2022/05/18 11:50:06;;;;;;;2.28;0.85;;;;;;;20.42;23.24;101551.78;5578118;31;34461;-57
2022/05/18 11:53:36;;;;;;;1.83;0.90;;;;;;;20.57;24.74;101547.84;5576819;31;34143;-59
2022/05/18 11:56:51;;;;;;;2.50;0.90;;;;;;;20.66;25.08;101553.28;5572214;31;32469;-58
2022/05/18 12:00:03;;;;;;;1.03;0.80;;;;;;;20.87;24.66;101545.28;5578873;31;34202;-58
2022/05/18 12:03:38;;;;;;;1.75;0.82;;;;;;;20.77;20.97;101542.88;5578286;31;34335;-58
2022/05/18 12:06:46;;;;;;;6.60;1.30;;;;;;;20.81;24.45;101550.09;5583936;31;33820;-58
2022/05/18 12:10:15;;;;;;;3.25;1.33;;;;;;;20.87;27.88;101554.25;5573409;31;33747;-58
2022/05/18 12:13:29;;;;;;;3.25;1.42;;;;;;;20.85;28.63;101553.75;5577572;31;33343;-58
2022/05/18 12:16:44;;;;;;;2.50;0.98;;;;;;;20.76;28.22;101555.72;5583098;31;34244;-58
2022/05/18 12:20:11;;;;;;;2.45;0.80;;;;;;;20.70;29.58;101554.25;5570649;31;33725;-58
2022/05/18 12:23:18;;;;;;;1.25;0.70;;;;;;;20.74;20.25;101563.41;5588902;31;34599;-58
2022/05/18 12:26:21;;;;;;;1.60;0.80;;;;;;;20.73;17.44;101544.63;5586567;31;34167;-58
2022/05/18 12:29:26;;;;;;;1.80;0.88;;;;;;;20.85;19.69;101548.31;5570640;32;33614;-58
2022/05/18 12:32:29;;;;;;;2.87;0.80;;;;;;;20.85;20.29;101552.97;5570090;31;33646;-58
2022/05/18 12:35:36;;;;;;;3.47;1.08;;;;;;;20.86;19.89;101563.56;5570147;31;33643;-58
2022/05/18 12:38:54;;;;;;;1.27;0.80;;;;;;;20.83;24.25;101566.13;5570382;32;33453;-58
2022/05/18 12:42:00;;;;;;;2.78;0.62;;;;;;;20.85;18.16;101561.94;5571100;31;34324;-58
2022/05/18 12:45:13;;;;;;;3.22;0.70;;;;;;;20.81;17.30;101560.19;5570151;31;33666;-58
2022/05/18 12:48:34;;;;;;;3.80;0.60;;;;;;;20.93;20.23;101560.34;5571510;31;33869;-59
2022/05/18 12:52:02;;;;;;;1.65;0.70;;;;;;;20.94;19.28;101561.94;5570492;31;34528;-58
2022/05/18 12:55:32;;;;;;;2.70;0.62;;;;;;;20.96;18.79;101557.00;5574269;31;34235;-58
2022/05/18 12:58:43;;;;;;;2.65;0.70;;;;;;;20.74;15.19;101552.50;5570443;32;33691;-58
2022/05/18 13:02:05;;;;;;;2.95;0.82;;;;;;;20.88;22.80;101557.78;5574347;31;33923;-58
2022/05/18 13:05:26;;;;;;;1.83;0.80;;;;;;;20.81;16.28;101552.00;5590205;31;33669;-58
2022/05/18 13:08:32;;;;;;;5.18;1.05;;;;;;;20.95;18.84;101555.37;5584324;31;34359;-58
2022/05/18 13:11:54;;;;;;;5.62;1.12;;;;;;;21.12;26.81;101555.37;5574853;31;33862;-58
2022/05/18 13:15:19;;;;;;;2.42;1.10;;;;;;;21.10;19.27;101551.38;5586269;31;33851;-58
2022/05/18 13:18:33;;;;;;;3.70;1.30;;;;;;;21.17;22.67;101546.22;5570016;31;33753;-58
2022/05/18 13:21:59;;;;;;;4.97;1.02;;;;;;;21.11;19.15;101544.78;5570768;31;32507;-58
2022/05/18 13:25:05;;;;;;;5.75;1.00;;;;;;;21.00;19.15;101546.25;5576589;31;33605;-58
2022/05/18 13:28:09;;;;;;;2.17;1.00;;;;;;;21.19;26.99;101545.87;5583176;31;33718;-58
2022/05/18 13:31:14;;;;;;;3.17;1.00;;;;;;;21.29;20.05;101553.72;5586177;31;34131;-58
2022/05/18 13:34:22;;;;;;;9.48;0.77;;;;;;;21.37;24.27;101547.47;5581488;31;33793;-58
2022/05/18 13:37:26;;;;;;;1.27;0.95;;;;;;;21.37;22.06;101547.47;5569982;32;33764;-58
2022/05/18 13:40:53;;;;;;;2.60;0.90;;;;;;;21.43;24.96;101539.94;5578256;31;33867;-59
2022/05/18 13:43:59;;;;;;;3.45;1.00;;;;;;;21.39;17.96;101539.78;5579355;31;34479;-58
2022/05/18 13:47:02;;;;;;;4.20;1.00;;;;;;;21.23;22.36;101535.94;5578657;31;33501;-58
2022/05/18 13:50:08;;;;;;;4.12;0.80;;;;;;;21.24;20.67;101538.34;5571825;31;33670;-58
2022/05/18 13:53:18;;;;;;;6.90;0.80;;;;;;;21.21;17.02;101533.53;5569705;31;34203;-58
2022/05/18 13:56:25;;;;;;;2.65;0.85;;;;;;;21.22;20.56;101537.84;5568639;32;33575;-59
2022/05/18 13:59:34;;;;;;;9.02;1.48;;;;;;;21.38;18.86;101543.62;5569495;32;33742;-58
2022/05/18 14:02:36;;;;;;;6.40;1.48;;;;;;;21.33;23.44;101543.78;5569884;31;33578;-58
2022/05/18 14:05:40;;;;;;;5.80;1.20;;;;;;;21.34;18.29;101531.75;5579163;31;33462;-57
2022/05/18 14:08:49;;;;;;;1.75;0.73;;;;;;;21.35;18.67;101531.44;5582800;31;33430;-58
2022/05/18 14:11:57;;;;;;;1.70;0.90;;;;;;;21.22;17.17;101526.94;5583711;31;33737;-58
2022/05/18 14:14:59;;;;;;;2.87;1.10;;;;;;;21.26;20.76;101524.41;5568987;32;34350;-58
2022/05/18 14:18:29;;;;;;;3.15;1.10;;;;;;;21.29;20.45;101524.53;5568880;32;33556;-58
2022/05/18 14:21:44;;;;;;;18.20;1.73;;;;;;;21.32;19.91;101523.06;5569135;32;33642;-59
2022/05/18 14:24:57;;;;;;;5.32;1.00;;;;;;;21.43;23.99;101526.31;5567445;32;34364;-58
2022/05/18 14:28:04;;;;;;;9.90;1.40;;;;;;;21.54;24.50;101533.78;5569514;32;33604;-58
2022/05/18 14:31:06;;;;;;;3.22;1.12;;;;;;;21.58;35.00;101533.94;5574100;31;33454;-59
2022/05/18 14:34:11;;;;;;;11.07;1.50;;;;;;;21.74;30.28;101531.47;5588793;31;33785;-58
2022/05/18 14:37:26;;;;;;;3.10;1.02;;;;;;;21.54;20.61;101527.53;5588098;31;34410;-58
2022/05/18 14:40:36;;;;;;;8.90;1.37;;;;;;;21.60;24.70;101522.72;5587998;31;34359;-58
2022/05/18 14:43:38;;;;;;;5.57;1.30;;;;;;;21.55;22.91;101521.72;5588298;31;33725;-59
2022/05/18 14:46:46;;;;;;;5.10;1.23;;;;;;;21.50;19.21;101532.06;5588144;31;33785;-58
2022/05/18 14:49:55;;;;;;;6.32;1.10;;;;;;;21.22;19.03;101537.84;5588324;31;33337;-58
2022/05/18 14:53:02;;;;;;;2.40;1.00;;;;;;;21.34;26.80;101534.47;5588723;31;33364;-58
2022/05/18 14:56:09;;;;;;;1.45;0.90;;;;;;;21.39;22.84;101538.97;5588455;31;33634;-58
2022/05/18 14:59:15;;;;;;;7.28;1.05;;;;;;;21.34;17.80;101532.56;5588876;31;33672;-59
2022/05/18 15:02:17;;;;;;;;;;;;;;;21.37;24.60;101533.06;5589229;31;34478;-58
2022/05/18 15:05:23;;;;;;;1.55;0.77;;;;;;;21.20;19.80;101531.94;5589247;31;33972;-58
2022/05/18 15:08:35;;;;;;;2.45;1.00;;;;;;;21.21;19.31;101530.81;5588776;31;33601;-58
2022/05/18 15:11:47;;;;;;;3.10;0.88;;;;;;;21.10;17.89;101533.06;5588984;31;33775;-58
2022/05/18 15:14:57;;;;;;;3.08;0.82;;;;;;;21.22;18.36;101526.16;5588671;31;34388;-59
2022/05/18 15:18:03;;;;;;;3.12;1.20;;;;;;;21.14;18.62;101527.78;5588844;31;34335;-59
2022/05/18 15:21:11;;;;;;;3.95;1.00;;;;;;;21.14;20.03;101524.25;5588381;31;33666;-58
2022/05/18 15:24:25;;;;;;;2.20;1.00;;;;;;;21.23;22.51;101522.31;5588664;31;33758;-58
2022/05/18 15:27:30;;;;;;;3.60;1.12;;;;;;;21.23;18.70;101514.13;5588867;31;33776;-59
